createdAt,value
2018-11-26T00:02:00.097Z,43.03
2018-11-26T00:05:26.324Z,42.77
2018-11-26T00:08:52.536Z,42.97
2018-11-26T00:12:19.120Z,42.87
2018-11-26T00:15:45.386Z,45.23
2018-11-26T00:19:11.565Z,44.77
2018-11-26T00:22:37.800Z,47.77
2018-11-26T00:26:04.020Z,47.93
2018-11-26T00:29:30.357Z,46.03
2018-11-26T00:32:56.577Z,43.43
2018-11-26T00:36:22.765Z,44.10
2018-11-26T00:39:49.336Z,42.37
2018-11-26T00:43:15.572Z,47.23
2018-11-26T00:46:41.796Z,46.37
2018-11-26T00:50:09.715Z,42.90
2018-11-26T00:53:35.937Z,46.57
2018-11-26T00:57:02.121Z,44.93
2018-11-26T01:00:28.366Z,46.17
2018-11-26T01:03:55.013Z,46.33
2018-11-26T01:07:21.227Z,47.83
2018-11-26T01:10:47.446Z,47.60
2018-11-26T01:14:14.041Z,46.67
2018-11-26T01:17:40.244Z,46.40
2018-11-26T01:21:06.524Z,45.13
2018-11-26T01:24:32.763Z,47.63
2018-11-26T01:27:59.006Z,47.57
2018-11-26T01:31:25.175Z,47.20
2018-11-26T01:34:51.413Z,44.77
2018-11-26T01:38:18.751Z,46.93
2018-11-26T01:41:45.378Z,44.83
2018-11-26T01:45:12.096Z,45.23
2018-11-26T01:48:38.367Z,46.43
2018-11-26T01:52:04.658Z,47.73
2018-11-26T01:55:30.907Z,45.00
2018-11-26T01:58:57.134Z,45.60
2018-11-26T02:02:23.348Z,45.00
2018-11-26T02:05:49.593Z,43.07
2018-11-26T02:09:15.819Z,43.33
2018-11-26T02:12:42.095Z,44.53
2018-11-26T02:16:08.408Z,43.40
2018-11-26T02:19:34.671Z,44.37
2018-11-26T02:23:01.070Z,43.63
2018-11-26T02:26:27.810Z,43.37
2018-11-26T02:29:54.077Z,43.93
2018-11-26T02:33:20.608Z,42.03
2018-11-26T02:36:47.183Z,41.33
2018-11-26T02:40:31.707Z,42.63
2018-11-26T02:43:57.873Z,41.27
2018-11-26T02:47:24.346Z,41.17
2018-11-26T02:50:50.841Z,38.60
2018-11-26T02:54:17.053Z,40.57
2018-11-26T02:57:43.585Z,38.37
2018-11-26T03:01:09.963Z,41.50
2018-11-26T03:04:36.231Z,40.30
2018-11-26T03:08:02.786Z,39.00
2018-11-26T03:11:29.097Z,37.40
2018-11-26T03:14:55.370Z,38.37
2018-11-26T03:18:21.552Z,37.60
2018-11-26T03:21:47.791Z,38.00
2018-11-26T03:25:14.400Z,36.33
2018-11-26T03:28:40.613Z,38.33
2018-11-26T03:32:06.863Z,39.30
2018-11-26T03:35:33.060Z,38.40
2018-11-26T03:38:59.259Z,39.17
2018-11-26T03:42:25.492Z,39.10
2018-11-26T03:45:51.704Z,37.10
2018-11-26T03:49:17.894Z,41.80
2018-11-26T03:52:45.476Z,36.70
2018-11-26T03:56:11.697Z,39.67
2018-11-26T03:59:38.253Z,38.77
2018-11-26T04:03:04.495Z,37.67
2018-11-26T04:06:31.002Z,36.30
2018-11-26T04:09:57.275Z,37.33
2018-11-26T04:13:23.536Z,37.00
2018-11-26T04:16:49.757Z,38.00
2018-11-26T04:20:15.992Z,35.80
2018-11-26T04:23:42.221Z,35.17
2018-11-26T04:27:08.593Z,37.80
2018-11-26T04:30:34.792Z,35.67
2018-11-26T04:34:01.342Z,37.87
2018-11-26T04:37:27.980Z,35.60
2018-11-26T04:40:54.225Z,34.30
2018-11-26T04:44:20.463Z,36.73
2018-11-26T04:47:46.697Z,34.13
2018-11-26T04:51:13.361Z,35.60
2018-11-26T04:54:39.583Z,34.13
2018-11-26T04:58:06.181Z,33.90
2018-11-26T05:01:32.397Z,33.47
2018-11-26T05:04:58.597Z,33.70
2018-11-26T05:08:24.826Z,34.83
2018-11-26T05:11:51.104Z,34.47
2018-11-26T05:15:17.369Z,35.70
2018-11-26T05:18:43.560Z,34.43
2018-11-26T05:22:10.121Z,32.93
2018-11-26T05:25:36.355Z,34.00
2018-11-26T05:29:02.987Z,35.97
2018-11-26T05:32:29.218Z,39.83
2018-11-26T05:35:55.484Z,37.90
2018-11-26T05:39:21.712Z,38.57
2018-11-26T05:42:47.923Z,37.90
2018-11-26T05:46:14.157Z,39.90
2018-11-26T05:49:40.648Z,42.80
2018-11-26T05:53:07.480Z,37.87
2018-11-26T05:56:33.739Z,40.43
2018-11-26T05:59:59.958Z,39.43
2018-11-26T06:03:26.189Z,41.23
2018-11-26T06:06:52.390Z,41.67
2018-11-26T06:10:18.731Z,38.93
2018-11-26T06:13:44.992Z,41.27
2018-11-26T06:17:11.226Z,39.27
2018-11-26T06:20:37.545Z,39.73
2018-11-26T06:24:04.007Z,37.83
2018-11-26T06:27:30.906Z,36.97
2018-11-26T06:30:57.573Z,38.00
2018-11-26T06:34:23.819Z,40.33
2018-11-26T06:37:50.432Z,37.83
2018-11-26T06:41:16.582Z,37.40
2018-11-26T06:44:42.800Z,40.27
2018-11-26T06:48:09.131Z,35.57
2018-11-26T06:51:35.324Z,36.90
2018-11-26T06:55:01.549Z,38.47
2018-11-26T06:58:27.743Z,38.20
2018-11-26T07:01:53.937Z,39.17
2018-11-26T07:05:21.915Z,40.13
2018-11-26T07:08:48.603Z,35.37
2018-11-26T07:12:15.197Z,36.53
2018-11-26T07:15:41.478Z,36.33
2018-11-26T07:19:08.048Z,33.33
2018-11-26T07:22:34.261Z,34.07
2018-11-26T07:26:00.606Z,34.60
2018-11-26T07:29:27.043Z,36.43
2018-11-26T07:32:53.193Z,35.87
2018-11-26T07:36:19.520Z,33.73
2018-11-26T07:39:45.786Z,32.73
2018-11-26T07:43:15.832Z,34.30
2018-11-26T07:47:14.868Z,33.90
2018-11-26T07:50:39.689Z,35.53
2018-11-26T07:54:04.508Z,35.73
2018-11-26T07:57:29.212Z,32.73
2018-11-26T08:00:53.937Z,30.93
2018-11-26T08:04:18.683Z,34.30
2018-11-26T08:07:43.493Z,33.93
2018-11-26T08:11:08.887Z,33.60
2018-11-26T08:14:33.625Z,34.27
2018-11-26T08:17:58.498Z,34.73
2018-11-26T08:21:23.245Z,35.17
2018-11-26T08:24:48.044Z,36.53
2018-11-26T08:28:12.717Z,36.73
2018-11-26T08:31:37.514Z,38.83
2018-11-26T08:35:02.236Z,36.90
2018-11-26T08:38:30.982Z,41.20
2018-11-26T08:41:55.776Z,38.87
2018-11-26T08:45:25.143Z,38.10
2018-11-26T08:48:55.119Z,37.30
2018-11-26T08:52:20.410Z,39.33
2018-11-26T08:55:45.183Z,36.30
2018-11-26T08:59:10.011Z,37.77
2018-11-26T09:02:38.765Z,36.70
2018-11-26T09:06:04.271Z,38.30
2018-11-26T09:09:32.749Z,37.70
2018-11-26T09:12:53.855Z,36.57
2018-11-26T09:16:18.616Z,38.73
2018-11-26T09:19:43.497Z,40.90
2018-11-26T09:23:08.288Z,38.83
2018-11-26T09:26:33.022Z,35.33
2018-11-26T09:29:57.810Z,39.87
2018-11-26T09:33:22.635Z,38.00
2018-11-26T09:36:47.510Z,37.00
2018-11-26T09:40:14.525Z,38.67
2018-11-26T09:43:39.311Z,39.67
2018-11-26T09:47:09.693Z,38.50
2018-11-26T09:50:34.536Z,35.20
2018-11-26T09:53:59.342Z,34.13
2018-11-26T09:57:24.116Z,36.43
2018-11-26T10:00:48.866Z,36.60
2018-11-26T10:04:13.701Z,34.50
2018-11-26T10:07:38.475Z,34.67
2018-11-26T10:11:03.325Z,35.17
2018-11-26T10:14:28.020Z,34.90
2018-11-26T10:17:53.144Z,33.37
2018-11-26T10:21:17.934Z,35.53
2018-11-26T10:24:42.764Z,33.23
2018-11-26T10:28:07.574Z,34.43
2018-11-26T10:31:32.367Z,34.33
2018-11-26T10:34:57.173Z,33.17
2018-11-26T10:38:21.964Z,34.07
2018-11-26T10:41:46.742Z,33.77
2018-11-26T10:45:13.353Z,32.23
2018-11-26T10:48:38.146Z,31.37
2018-11-26T10:52:02.935Z,33.33
2018-11-26T10:55:35.689Z,34.87
2018-11-26T10:59:00.505Z,32.37
2018-11-26T11:02:30.395Z,31.07
2018-11-26T11:05:55.339Z,32.57
2018-11-26T11:09:20.141Z,31.60
2018-11-26T11:12:44.968Z,34.37
2018-11-26T11:16:09.842Z,31.47
2018-11-26T11:19:34.626Z,33.67
2018-11-26T11:22:59.493Z,35.20
2018-11-26T11:26:24.286Z,33.07
2018-11-26T11:29:49.051Z,32.73
2018-11-26T11:36:37.633Z,31.07
2018-11-26T11:40:02.471Z,33.17
2018-11-26T11:43:27.296Z,32.13
2018-11-26T11:46:52.136Z,33.47
2018-11-26T11:50:18.754Z,33.10
2018-11-26T11:53:43.546Z,32.57
2018-11-26T11:57:08.380Z,32.40
2018-11-26T12:00:40.509Z,32.57
2018-11-26T12:04:05.985Z,32.33
2018-11-26T12:07:30.811Z,31.10
2018-11-26T12:10:55.566Z,34.63
2018-11-26T12:14:20.380Z,30.90
2018-11-26T12:17:46.302Z,33.80
2018-11-26T12:21:11.119Z,33.43
2018-11-26T12:24:35.874Z,31.83
2018-11-26T12:28:00.701Z,32.20
2018-11-26T12:31:25.536Z,33.60
2018-11-26T12:34:50.304Z,33.20
2018-11-26T12:38:15.141Z,35.07
2018-11-26T12:41:40.025Z,34.20
2018-11-26T12:45:06.273Z,34.17
2018-11-26T12:48:31.145Z,36.37
2018-11-26T12:51:55.856Z,35.97
2018-11-26T12:55:22.070Z,38.67
2018-11-26T12:58:46.845Z,36.63
2018-11-26T13:02:11.739Z,35.03
2018-11-26T13:05:36.616Z,38.47
2018-11-26T13:09:01.425Z,37.57
2018-11-26T13:12:26.305Z,36.73
2018-11-26T13:15:51.139Z,41.13
2018-11-26T13:19:15.939Z,37.43
2018-11-26T13:22:40.757Z,36.70
2018-11-26T13:26:05.679Z,36.73
2018-11-26T13:29:30.592Z,36.17
2018-11-26T13:32:58.125Z,37.00
2018-11-26T13:36:23.124Z,36.73
2018-11-26T13:39:47.930Z,36.77
2018-11-26T13:43:17.128Z,35.83
2018-11-26T13:46:41.936Z,37.53
2018-11-26T13:50:09.929Z,39.60
2018-11-26T13:53:34.673Z,37.00
2018-11-26T13:56:59.377Z,37.97
2018-11-26T14:00:24.181Z,39.83
2018-11-26T14:03:48.957Z,38.87
2018-11-26T14:07:13.640Z,38.10
2018-11-26T14:10:38.385Z,39.83
2018-11-26T14:14:03.131Z,41.93
2018-11-26T14:17:27.854Z,39.20
2018-11-26T14:20:52.650Z,41.00
2018-11-26T14:24:17.370Z,40.27
2018-11-26T14:27:43.352Z,41.47
2018-11-26T14:31:08.182Z,40.07
2018-11-26T14:34:32.916Z,40.67
2018-11-26T14:38:00.272Z,38.87
2018-11-26T14:41:24.989Z,37.00
2018-11-26T14:44:50.456Z,36.97
2018-11-26T14:48:15.290Z,38.07
2018-11-26T14:51:40.106Z,35.53
2018-11-26T14:55:05.531Z,35.33
2018-11-26T14:58:30.239Z,38.23
2018-11-26T15:01:54.985Z,36.63
2018-11-26T15:05:19.768Z,37.90
2018-11-26T15:08:44.550Z,37.20
2018-11-26T15:12:09.322Z,36.47
2018-11-26T15:15:33.991Z,39.33
2018-11-26T15:18:58.931Z,39.83
2018-11-26T15:22:24.886Z,39.67
2018-11-26T15:25:49.804Z,39.80
2018-11-26T15:29:14.940Z,38.50
2018-11-26T15:32:40.209Z,38.37
2018-11-26T15:36:04.998Z,37.80
2018-11-26T15:39:30.201Z,40.37
2018-11-26T15:42:56.762Z,39.93
2018-11-26T15:46:27.522Z,41.13
2018-11-26T15:49:52.280Z,40.10
2018-11-26T15:53:18.345Z,40.00
2018-11-26T15:56:43.486Z,41.43
2018-11-26T16:00:16.025Z,41.70
2018-11-26T16:03:40.998Z,41.50
2018-11-26T16:07:06.316Z,41.30
2018-11-26T16:10:31.151Z,40.43
2018-11-26T16:13:56.411Z,38.70
2018-11-26T16:17:21.248Z,37.40
2018-11-26T16:20:46.308Z,38.83
2018-11-26T16:24:11.102Z,37.53
2018-11-26T16:27:36.934Z,39.00
2018-11-26T16:31:01.712Z,39.03
2018-11-26T16:34:27.035Z,39.70
2018-11-26T16:37:51.886Z,37.97
2018-11-26T16:41:16.608Z,43.57
2018-11-26T16:44:45.464Z,40.07
2018-11-26T16:48:10.424Z,38.73
2018-11-26T16:51:35.197Z,39.50
2018-11-26T16:55:00.285Z,39.37
2018-11-26T16:58:25.107Z,38.07
2018-11-26T17:01:49.912Z,38.20
2018-11-26T17:05:20.045Z,38.83
2018-11-26T17:08:44.849Z,38.23
2018-11-26T17:12:09.685Z,39.83
2018-11-26T17:15:34.577Z,41.07
2018-11-26T17:18:59.401Z,38.67
2018-11-26T17:22:24.267Z,43.30
2018-11-26T17:25:49.087Z,36.80
2018-11-26T17:29:13.893Z,42.90
2018-11-26T17:32:45.605Z,39.03
2018-11-26T17:36:13.032Z,37.87
2018-11-26T17:39:41.736Z,41.17
2018-11-26T17:43:07.901Z,40.47
2018-11-26T17:46:32.723Z,40.57
2018-11-26T17:49:57.575Z,39.73
2018-11-26T17:53:22.934Z,40.07
2018-11-26T17:56:47.711Z,40.73
2018-11-26T18:00:17.867Z,40.93
2018-11-26T18:03:44.322Z,39.13
2018-11-26T18:07:09.036Z,40.67
2018-11-26T18:10:33.840Z,37.97
2018-11-26T18:13:59.342Z,39.67
2018-11-26T18:17:24.201Z,39.90
2018-11-26T18:20:49.473Z,38.53
2018-11-26T18:24:14.400Z,35.97
2018-11-26T18:27:41.222Z,37.93
2018-11-26T18:31:07.150Z,38.73
2018-11-26T18:34:31.860Z,39.00
2018-11-26T18:37:56.683Z,40.50
2018-11-26T18:41:21.439Z,40.03
2018-11-26T18:44:46.133Z,38.57
2018-11-26T18:48:12.690Z,39.27
2018-11-26T18:51:37.457Z,41.63
2018-11-26T18:55:02.294Z,36.13
2018-11-26T18:58:27.064Z,40.97
2018-11-26T19:01:51.786Z,38.40
2018-11-26T19:05:17.538Z,37.07
2018-11-26T19:08:42.368Z,40.13
2018-11-26T19:12:07.668Z,36.63
2018-11-26T19:15:36.838Z,38.93
2018-11-26T19:19:01.692Z,41.43
2018-11-26T19:22:27.007Z,34.90
2018-11-26T19:25:53.264Z,35.90
2018-11-26T19:29:18.025Z,35.87
2018-11-26T19:32:43.990Z,36.50
2018-11-26T19:36:09.704Z,38.70
2018-11-26T19:39:35.136Z,38.03
2018-11-26T19:43:02.331Z,37.70
2018-11-26T19:46:28.231Z,37.27
2018-11-26T19:49:55.451Z,38.67
2018-11-26T19:53:20.614Z,39.00
2018-11-26T19:56:45.504Z,37.40
2018-11-26T20:00:23.592Z,38.60
2018-11-26T20:03:54.160Z,38.87
2018-11-26T20:07:20.356Z,35.87
2018-11-26T20:10:46.394Z,37.77
2018-11-26T20:14:21.325Z,35.17
2018-11-26T20:17:39.908Z,36.90
2018-11-26T20:21:06.108Z,36.17
2018-11-26T20:24:31.705Z,35.63
2018-11-26T20:27:57.085Z,37.73
2018-11-26T20:31:22.623Z,37.20
2018-11-26T20:34:48.566Z,37.43
2018-11-26T20:38:16.545Z,37.30
2018-11-26T20:41:42.539Z,38.50
2018-11-26T20:45:14.116Z,33.83
2018-11-26T20:48:39.825Z,34.97
2018-11-26T20:52:06.782Z,36.63
2018-11-26T20:55:32.520Z,34.87
2018-11-26T20:58:57.387Z,36.57
2018-11-26T21:02:22.505Z,32.30
2018-11-26T21:05:47.607Z,35.50
2018-11-26T21:09:12.783Z,35.13
2018-11-26T21:12:38.018Z,35.90
2018-11-26T21:16:03.942Z,34.43
2018-11-26T21:19:29.603Z,34.30
2018-11-26T21:22:57.760Z,33.13
2018-11-26T21:26:22.843Z,33.30
2018-11-26T21:29:47.813Z,35.10
2018-11-26T21:33:12.831Z,34.17
2018-11-26T21:36:37.793Z,35.13
2018-11-26T21:40:02.716Z,35.60
2018-11-26T21:43:27.675Z,33.83
2018-11-26T21:46:53.060Z,32.30
2018-11-26T21:50:17.736Z,34.03
2018-11-26T21:53:42.708Z,33.47
2018-11-26T21:57:08.018Z,33.50
2018-11-26T22:00:33.793Z,36.03
2018-11-26T22:03:58.739Z,34.60
2018-11-26T22:07:23.890Z,34.00
2018-11-26T22:10:48.722Z,33.43
2018-11-26T22:14:13.687Z,34.17
2018-11-26T22:17:39.415Z,33.43
2018-11-26T22:21:04.474Z,34.13
2018-11-26T22:24:29.444Z,33.17
2018-11-26T22:27:55.214Z,34.30
2018-11-26T22:31:20.151Z,34.37
2018-11-26T22:34:45.083Z,35.10
2018-11-26T22:38:10.053Z,34.70
2018-11-26T22:41:34.729Z,35.07
2018-11-26T22:44:59.451Z,35.50
2018-11-26T22:48:24.158Z,37.40
2018-11-26T22:51:51.506Z,31.73
2018-11-26T22:55:14.956Z,35.17
2018-11-26T22:58:39.689Z,32.70
2018-11-26T23:02:04.438Z,33.60
2018-11-26T23:05:29.328Z,34.27
2018-11-26T23:08:54.026Z,33.40
2018-11-26T23:12:18.636Z,34.53
2018-11-26T23:15:43.345Z,34.00
2018-11-26T23:19:08.253Z,34.27
2018-11-26T23:22:32.950Z,35.50
2018-11-26T23:25:57.734Z,34.53
2018-11-26T23:29:22.394Z,34.23
2018-11-26T23:32:48.881Z,36.63
2018-11-26T23:36:13.566Z,33.43
2018-11-26T23:39:38.271Z,34.83
2018-11-26T23:43:03.110Z,34.30
2018-11-26T23:46:27.773Z,34.37
2018-11-26T23:49:52.454Z,33.87
2018-11-26T23:53:17.142Z,35.10
2018-11-26T23:56:41.838Z,34.40
